createdAt,value
2019-06-08T00:02:08.545Z,0.97
2019-06-08T00:04:39.616Z,4.07
2019-06-08T00:07:09.816Z,1.93
2019-06-08T00:09:41.066Z,3.67
2019-06-08T00:12:12.952Z,1.80
2019-06-08T00:14:44.290Z,1.50
2019-06-08T00:17:30.308Z,1.93
2019-06-08T00:19:48.323Z,1.90
2019-06-08T00:22:19.791Z,1.70
2019-06-08T00:24:51.024Z,0.63
2019-06-08T00:27:23.052Z,1.60
2019-06-08T00:29:54.940Z,2.37
2019-06-08T00:32:26.104Z,1.93
2019-06-08T00:34:57.478Z,0.63
2019-06-08T00:37:28.463Z,1.30
2019-06-08T00:39:58.652Z,1.13
2019-06-08T00:42:29.975Z,0.87
2019-06-08T00:45:01.264Z,2.80
2019-06-08T00:47:47.049Z,2.00
2019-06-08T00:50:08.542Z,1.83
2019-06-08T00:52:39.788Z,1.00
2019-06-08T00:55:10.968Z,3.80
2019-06-08T00:57:42.185Z,3.97
2019-06-08T01:00:13.381Z,2.13
2019-06-08T01:02:44.579Z,2.07
2019-06-08T01:05:15.641Z,1.40
2019-06-08T01:07:46.990Z,1.83
2019-06-08T01:10:19.217Z,1.20
2019-06-08T01:12:50.534Z,2.70
2019-06-08T01:15:27.735Z,2.87
2019-06-08T01:18:02.683Z,1.27
2019-06-08T01:20:27.519Z,2.27
2019-06-08T01:22:58.718Z,3.67
2019-06-08T01:25:30.153Z,1.50
2019-06-08T01:28:01.061Z,1.40
2019-06-08T01:30:32.545Z,1.60
2019-06-08T01:33:03.654Z,1.20
2019-06-08T01:35:34.929Z,1.10
2019-06-08T01:38:06.048Z,2.60
2019-06-08T01:40:37.486Z,1.17
2019-06-08T01:43:08.395Z,1.57
2019-06-08T01:45:39.657Z,1.67
2019-06-08T01:48:20.140Z,1.77
2019-06-08T01:50:42.723Z,3.07
2019-06-08T01:53:13.951Z,0.83
2019-06-08T01:55:44.982Z,1.17
2019-06-08T01:58:16.160Z,1.43
2019-06-08T02:00:47.362Z,2.03
2019-06-08T02:03:18.680Z,2.83
2019-06-08T02:05:49.760Z,1.60
2019-06-08T02:08:20.901Z,6.73
2019-06-08T02:10:51.897Z,2.40
2019-06-08T02:13:22.970Z,1.93
2019-06-08T02:15:54.019Z,1.43
2019-06-08T02:18:36.327Z,1.63
2019-06-08T02:20:58.063Z,1.63
2019-06-08T02:23:31.108Z,2.20
2019-06-08T02:26:02.252Z,0.90
2019-06-08T02:28:33.555Z,1.07
2019-06-08T02:31:05.064Z,1.23
2019-06-08T02:33:37.346Z,1.67
2019-06-08T02:36:08.771Z,2.13
2019-06-08T02:38:39.841Z,2.57
2019-06-08T02:41:11.067Z,1.30
2019-06-08T02:43:42.145Z,2.27
2019-06-08T02:46:13.373Z,1.60
2019-06-08T02:49:02.441Z,2.37
2019-06-08T02:51:18.087Z,2.07
2019-06-08T02:53:49.924Z,0.97
2019-06-08T02:56:23.771Z,1.20
2019-06-08T02:58:57.983Z,2.67
2019-06-08T03:01:31.302Z,1.60
2019-06-08T03:04:02.897Z,1.50
2019-06-08T03:06:38.898Z,2.80
2019-06-08T03:09:09.749Z,1.43
2019-06-08T03:11:42.000Z,2.50
2019-06-08T03:14:13.540Z,0.87
2019-06-08T03:16:44.576Z,1.27
2019-06-08T03:19:21.899Z,1.07
2019-06-08T03:21:48.636Z,0.93
2019-06-08T03:24:19.801Z,2.13
2019-06-08T03:26:50.829Z,1.23
2019-06-08T03:29:22.023Z,1.97
2019-06-08T03:31:56.395Z,0.60
2019-06-08T03:34:25.922Z,2.70
2019-06-08T03:36:57.695Z,1.90
2019-06-08T03:39:28.105Z,1.27
2019-06-08T03:41:59.370Z,1.33
2019-06-08T03:44:30.416Z,2.17
2019-06-08T03:47:01.591Z,2.57
2019-06-08T03:49:44.949Z,1.63
2019-06-08T03:52:05.519Z,2.27
2019-06-08T03:54:38.902Z,1.70
2019-06-08T03:57:09.258Z,2.63
2019-06-08T03:59:41.064Z,2.00
2019-06-08T04:02:13.098Z,1.20
2019-06-08T04:04:46.073Z,1.00
2019-06-08T04:07:16.842Z,1.17
2019-06-08T04:09:47.874Z,4.77
2019-06-08T04:12:18.165Z,1.70
2019-06-08T04:14:50.494Z,2.30
2019-06-08T04:17:21.552Z,2.47
2019-06-08T04:20:09.425Z,2.33
2019-06-08T04:22:25.560Z,2.10
2019-06-08T04:24:56.901Z,2.07
2019-06-08T04:27:27.879Z,1.10
2019-06-08T04:29:59.059Z,1.47
2019-06-08T04:32:30.212Z,1.03
2019-06-08T04:35:01.447Z,1.33
2019-06-08T04:37:32.743Z,2.97
2019-06-08T04:40:06.295Z,3.40
2019-06-08T04:42:39.232Z,1.90
2019-06-08T04:45:11.066Z,1.77
2019-06-08T04:47:43.632Z,3.17
2019-06-08T04:50:22.471Z,2.87
2019-06-08T04:52:48.041Z,2.43
2019-06-08T04:55:19.944Z,1.40
2019-06-08T04:57:51.100Z,3.00
2019-06-08T05:00:22.246Z,2.10
2019-06-08T05:02:53.967Z,1.23
2019-06-08T05:05:25.020Z,1.30
2019-06-08T05:07:56.224Z,1.50
2019-06-08T05:10:27.190Z,2.40
2019-06-08T05:12:58.545Z,2.23
2019-06-08T05:15:29.416Z,2.30
2019-06-08T05:18:00.710Z,3.13
2019-06-08T05:20:39.016Z,1.57
2019-06-08T05:23:03.752Z,1.20
2019-06-08T05:25:35.062Z,2.20
2019-06-08T05:28:06.180Z,1.27
2019-06-08T05:30:37.425Z,3.90
2019-06-08T05:33:08.517Z,2.80
2019-06-08T05:35:39.776Z,2.47
2019-06-08T05:38:10.747Z,2.10
2019-06-08T05:40:42.118Z,1.63
2019-06-08T05:43:13.120Z,5.27
2019-06-08T05:45:45.698Z,1.30
2019-06-08T05:48:16.759Z,2.13
2019-06-08T05:51:00.232Z,1.10
2019-06-08T05:53:20.598Z,3.63
2019-06-08T05:55:52.325Z,1.10
2019-06-08T05:58:23.202Z,2.73
2019-06-08T06:00:53.300Z,1.43
2019-06-08T06:03:24.376Z,1.93
2019-06-08T06:05:55.373Z,2.67
2019-06-08T06:08:26.620Z,2.97
2019-06-08T06:11:00.788Z,2.10
2019-06-08T06:13:31.938Z,1.67
2019-06-08T06:16:03.071Z,3.63
2019-06-08T06:18:34.462Z,3.53
2019-06-08T06:21:11.088Z,1.90
2019-06-08T06:23:38.542Z,2.70
2019-06-08T06:26:09.542Z,4.80
2019-06-08T06:28:43.806Z,4.37
2019-06-08T06:31:14.907Z,2.40
2019-06-08T06:33:45.975Z,2.03
2019-06-08T06:36:17.407Z,3.93
2019-06-08T06:38:50.054Z,1.40
2019-06-08T06:41:21.379Z,2.40
2019-06-08T06:43:52.381Z,2.97
2019-06-08T06:46:23.864Z,5.10
2019-06-08T06:48:54.845Z,2.87
2019-06-08T06:51:26.969Z,1.73
2019-06-08T06:53:57.954Z,2.10
2019-06-08T06:56:29.568Z,2.00
2019-06-08T06:59:00.508Z,1.73
2019-06-08T07:01:32.630Z,1.97
2019-06-08T07:04:03.774Z,1.90
2019-06-08T07:06:34.032Z,1.53
2019-06-08T07:09:06.795Z,1.77
2019-06-08T07:11:37.834Z,3.03
2019-06-08T07:14:09.249Z,1.37
2019-06-08T07:16:40.245Z,1.23
2019-06-08T07:19:14.619Z,1.13
2019-06-08T07:21:46.152Z,1.50
2019-06-08T07:24:17.301Z,1.00
2019-06-08T07:26:48.335Z,2.57
2019-06-08T07:29:19.403Z,1.83
2019-06-08T07:31:51.679Z,2.40
2019-06-08T07:34:23.512Z,2.03
2019-06-08T07:36:55.549Z,2.70
2019-06-08T07:39:26.934Z,2.23
2019-06-08T07:41:57.974Z,2.47
2019-06-08T07:44:28.204Z,2.33
2019-06-08T07:47:00.148Z,2.07
2019-06-08T07:49:31.171Z,2.80
2019-06-08T07:52:10.561Z,1.87
2019-06-08T07:54:40.729Z,1.63
2019-06-08T07:57:14.701Z,3.43
2019-06-08T07:59:45.734Z,1.23
2019-06-08T08:02:17.048Z,1.63
2019-06-08T08:04:48.444Z,3.60
2019-06-08T08:07:19.660Z,1.83
2019-06-08T08:09:50.723Z,3.40
2019-06-08T08:12:21.970Z,2.67
2019-06-08T08:14:53.342Z,1.73
2019-06-08T08:17:23.398Z,3.03
2019-06-08T08:19:55.176Z,3.10
2019-06-08T08:22:29.488Z,2.97
2019-06-08T08:25:03.257Z,3.70
2019-06-08T08:27:32.315Z,3.30
2019-06-08T08:30:05.050Z,1.57
2019-06-08T08:32:38.071Z,1.57
2019-06-08T08:35:09.236Z,4.13
2019-06-08T08:37:40.259Z,2.53
2019-06-08T08:40:12.271Z,4.57
2019-06-08T08:42:43.445Z,2.37
2019-06-08T08:45:15.378Z,3.73
2019-06-08T08:47:48.364Z,4.37
2019-06-08T08:50:19.569Z,4.20
2019-06-08T08:52:51.300Z,4.93
2019-06-08T08:55:22.442Z,3.80
2019-06-08T08:57:54.753Z,5.43
2019-06-08T09:00:27.990Z,4.50
2019-06-08T09:03:13.142Z,2.97
2019-06-08T09:05:33.184Z,3.50
2019-06-08T09:08:08.636Z,6.77
2019-06-08T09:10:40.291Z,2.87
2019-06-08T09:13:12.074Z,4.73
2019-06-08T09:15:43.405Z,5.60
2019-06-08T09:18:14.739Z,8.20
2019-06-08T09:20:47.892Z,3.87
2019-06-08T09:23:21.816Z,3.23
2019-06-08T09:25:53.565Z,2.90
2019-06-08T09:28:24.689Z,5.13
2019-06-08T09:30:56.709Z,3.17
2019-06-08T09:33:28.801Z,2.27
2019-06-08T09:36:02.806Z,3.47
2019-06-08T09:38:32.843Z,4.23
2019-06-08T09:41:05.440Z,3.23
2019-06-08T09:43:38.840Z,3.90
2019-06-08T09:46:09.685Z,5.77
2019-06-08T09:48:40.670Z,5.83
2019-06-08T09:51:12.254Z,4.33
2019-06-08T09:53:43.217Z,3.70
2019-06-08T09:56:14.594Z,4.27
2019-06-08T09:58:45.524Z,2.00
2019-06-08T10:01:18.496Z,6.03
2019-06-08T10:03:49.671Z,3.03
2019-06-08T10:06:21.820Z,3.20
2019-06-08T10:08:54.178Z,2.87
2019-06-08T10:11:24.439Z,5.87
2019-06-08T10:13:59.012Z,4.77
2019-06-08T10:16:30.665Z,2.37
2019-06-08T10:19:03.926Z,3.63
2019-06-08T10:21:34.019Z,4.93
2019-06-08T10:24:08.749Z,4.50
2019-06-08T10:26:38.020Z,3.90
2019-06-08T10:29:10.540Z,2.77
2019-06-08T10:31:43.642Z,2.10
2019-06-08T10:34:14.942Z,2.67
2019-06-08T10:36:46.011Z,4.40
2019-06-08T10:39:20.363Z,4.50
2019-06-08T10:41:53.005Z,4.93
2019-06-08T10:44:23.133Z,3.17
2019-06-08T10:46:54.302Z,3.97
2019-06-08T10:49:27.837Z,4.53
2019-06-08T10:52:01.617Z,3.53
2019-06-08T10:54:33.696Z,4.67
2019-06-08T10:57:07.157Z,2.40
2019-06-08T10:59:40.235Z,2.77
2019-06-08T11:02:14.628Z,5.80
2019-06-08T11:04:48.302Z,4.87
2019-06-08T11:07:18.732Z,4.33
2019-06-08T11:09:59.798Z,3.97
2019-06-08T11:12:31.422Z,7.13
2019-06-08T11:15:09.283Z,2.93
2019-06-08T11:17:39.120Z,3.37
2019-06-08T11:20:11.895Z,5.17
2019-06-08T11:22:43.162Z,4.33
2019-06-08T11:25:16.352Z,2.33
2019-06-08T11:27:47.543Z,4.70
2019-06-08T11:30:24.135Z,3.47
2019-06-08T11:32:52.536Z,4.93
2019-06-08T11:35:23.750Z,3.43
2019-06-08T11:37:54.794Z,3.30
2019-06-08T11:40:27.848Z,3.30
2019-06-08T11:43:00.234Z,2.17
2019-06-08T11:45:31.847Z,3.07
2019-06-08T11:48:04.527Z,2.70
2019-06-08T11:50:41.964Z,4.87
2019-06-08T11:53:14.264Z,3.57
2019-06-08T11:55:44.566Z,4.50
2019-06-08T11:58:21.896Z,2.93
2019-06-08T12:01:04.597Z,3.67
2019-06-08T12:03:34.916Z,4.20
2019-06-08T12:06:14.338Z,2.43
2019-06-08T12:08:47.282Z,4.50
2019-06-08T12:11:19.793Z,5.37
2019-06-08T12:13:50.117Z,2.77
2019-06-08T12:16:24.368Z,3.67
2019-06-08T12:18:58.411Z,2.83
2019-06-08T12:21:28.291Z,3.83
2019-06-08T12:23:59.619Z,6.87
2019-06-08T12:26:30.805Z,4.73
2019-06-08T12:29:02.202Z,6.23
2019-06-08T12:31:33.295Z,3.80
2019-06-08T12:34:05.191Z,3.27
2019-06-08T12:36:37.531Z,2.63
2019-06-08T12:39:10.095Z,1.90
2019-06-08T12:41:41.210Z,3.77
2019-06-08T12:44:15.556Z,2.50
2019-06-08T12:46:48.501Z,2.80
2019-06-08T12:49:20.382Z,3.47
2019-06-08T12:51:51.985Z,3.77
2019-06-08T12:54:23.033Z,3.10
2019-06-08T12:56:54.322Z,2.97
2019-06-08T12:59:25.448Z,2.77
2019-06-08T13:01:58.664Z,2.27
2019-06-08T13:04:29.499Z,4.07
2019-06-08T13:07:01.185Z,3.47
2019-06-08T13:09:32.320Z,3.33
2019-06-08T13:12:03.907Z,3.27
2019-06-08T13:14:34.929Z,3.83
2019-06-08T13:17:08.656Z,1.40
2019-06-08T13:19:40.928Z,3.47
2019-06-08T13:22:11.146Z,4.17
2019-06-08T13:24:43.181Z,4.83
2019-06-08T13:27:15.431Z,3.37
2019-06-08T13:29:48.895Z,3.05
2019-06-08T13:32:21.877Z,2.90
2019-06-08T13:34:53.149Z,2.95
2019-06-08T13:37:24.215Z,2.45
2019-06-08T13:39:55.518Z,2.30
2019-06-08T13:42:27.946Z,3.23
2019-06-08T13:44:59.444Z,3.97
2019-06-08T13:47:30.561Z,3.20
2019-06-08T13:50:02.081Z,4.12
2019-06-08T13:52:33.085Z,3.47
2019-06-08T13:55:09.004Z,2.47
2019-06-08T13:57:40.431Z,4.28
2019-06-08T14:00:11.943Z,5.87
2019-06-08T14:02:44.535Z,3.70
2019-06-08T14:05:24.780Z,4.73
2019-06-08T14:07:51.685Z,2.50
2019-06-08T14:10:34.502Z,3.40
2019-06-08T14:13:06.306Z,3.17
2019-06-08T14:15:38.060Z,2.40
2019-06-08T14:18:09.442Z,1.83
2019-06-08T14:20:40.470Z,4.17
2019-06-08T14:23:11.796Z,3.35
2019-06-08T14:25:50.631Z,3.37
2019-06-08T14:28:19.261Z,2.85
2019-06-08T14:30:48.869Z,2.95
2019-06-08T14:33:25.178Z,2.70
2019-06-08T14:35:55.539Z,2.57
2019-06-08T14:38:34.885Z,2.73
2019-06-08T14:40:59.083Z,3.60
2019-06-08T14:43:31.396Z,5.23
2019-06-08T14:46:02.642Z,4.23
2019-06-08T14:48:34.068Z,4.83
2019-06-08T14:51:05.343Z,4.70
2019-06-08T14:53:38.619Z,4.80
2019-06-08T14:56:09.593Z,3.17
2019-06-08T14:58:40.660Z,2.80
2019-06-08T15:01:12.051Z,3.60
2019-06-08T15:03:43.110Z,2.00
2019-06-08T15:06:14.550Z,2.95
2019-06-08T15:08:50.054Z,2.60
2019-06-08T15:11:19.644Z,2.83
2019-06-08T15:13:50.695Z,3.30
2019-06-08T15:16:21.592Z,1.53
2019-06-08T15:18:52.959Z,2.70
2019-06-08T15:21:25.368Z,2.00
2019-06-08T15:23:58.061Z,2.70
2019-06-08T15:26:39.247Z,4.53
2019-06-08T15:29:02.091Z,2.03
2019-06-08T15:31:33.123Z,1.85
2019-06-08T15:34:04.364Z,3.17
2019-06-08T15:36:35.250Z,3.03
2019-06-08T15:39:07.956Z,2.02
2019-06-08T15:41:38.887Z,4.17
2019-06-08T15:44:10.187Z,3.55
2019-06-08T15:46:41.404Z,4.03
2019-06-08T15:49:11.706Z,3.25
2019-06-08T15:51:43.123Z,2.50
2019-06-08T15:54:14.274Z,1.43
2019-06-08T15:56:49.514Z,4.28
2019-06-08T15:59:18.433Z,3.70
2019-06-08T16:01:49.529Z,3.17
2019-06-08T16:04:20.483Z,2.20
2019-06-08T16:06:51.750Z,2.80
2019-06-08T16:09:23.974Z,3.85
2019-06-08T16:11:55.436Z,2.60
2019-06-08T16:14:26.745Z,2.27
2019-06-08T16:16:58.194Z,3.07
2019-06-08T16:19:29.628Z,4.43
2019-06-08T16:21:59.829Z,3.20
2019-06-08T16:24:31.893Z,2.87
2019-06-08T16:27:02.920Z,2.83
2019-06-08T16:29:35.165Z,2.67
2019-06-08T16:32:06.371Z,2.53
2019-06-08T16:34:37.609Z,3.13
2019-06-08T16:37:10.393Z,2.37
2019-06-08T16:39:41.742Z,2.20
2019-06-08T16:42:12.738Z,2.80
2019-06-08T16:44:44.060Z,3.03
2019-06-08T16:47:15.151Z,4.03
2019-06-08T16:49:46.300Z,1.87
2019-06-08T16:52:20.291Z,4.33
2019-06-08T16:54:50.381Z,3.77
2019-06-08T16:57:21.679Z,2.57
2019-06-08T16:59:52.674Z,3.53
2019-06-08T17:02:22.995Z,2.63
2019-06-08T17:04:52.510Z,2.23
2019-06-08T17:07:23.376Z,2.10
2019-06-08T17:09:54.339Z,1.93
2019-06-08T17:12:25.596Z,2.67
2019-06-08T17:14:56.599Z,3.53
2019-06-08T17:17:27.735Z,1.47
2019-06-08T17:19:58.785Z,2.97
2019-06-08T17:22:30.284Z,5.27
2019-06-08T17:25:01.317Z,5.27
2019-06-08T17:27:34.609Z,3.65
2019-06-08T17:30:08.530Z,3.17
2019-06-08T17:32:40.515Z,1.73
2019-06-08T17:35:12.010Z,2.27
2019-06-08T17:37:43.134Z,3.60
2019-06-08T17:40:14.746Z,4.07
2019-06-08T17:42:45.821Z,5.03
2019-06-08T17:45:18.369Z,1.30
2019-06-08T17:47:49.485Z,4.03
2019-06-08T17:50:22.413Z,3.70
2019-06-08T17:52:53.567Z,5.20
2019-06-08T17:55:25.191Z,5.10
2019-06-08T17:57:56.236Z,2.50
2019-06-08T18:00:27.644Z,3.13
2019-06-08T18:03:00.603Z,3.93
2019-06-08T18:05:30.894Z,5.27
2019-06-08T18:08:02.230Z,3.30
2019-06-08T18:10:34.036Z,3.70
2019-06-08T18:13:07.285Z,4.23
2019-06-08T18:15:39.112Z,8.97
2019-06-08T18:18:11.440Z,3.40
2019-06-08T18:20:43.851Z,2.00
2019-06-08T18:23:18.656Z,5.00
2019-06-08T18:25:50.209Z,4.30
2019-06-08T18:28:21.522Z,3.10
2019-06-08T18:30:53.034Z,6.03
2019-06-08T18:33:24.360Z,6.63
2019-06-08T18:35:57.669Z,6.60
2019-06-08T18:40:58.824Z,7.77
2019-06-08T18:43:28.939Z,6.20
2019-06-08T18:46:00.284Z,5.87
2019-06-08T18:48:31.399Z,5.47
2019-06-08T18:51:04.894Z,6.63
2019-06-08T18:53:49.111Z,10.13
2019-06-08T18:56:08.980Z,5.10
2019-06-08T18:58:40.021Z,5.70
2019-06-08T19:01:11.543Z,4.37
2019-06-08T19:03:45.664Z,3.13
2019-06-08T19:06:18.157Z,3.77
2019-06-08T19:08:57.785Z,3.93
2019-06-08T19:11:24.300Z,7.30
2019-06-08T19:13:57.929Z,4.23
2019-06-08T19:16:29.693Z,2.97
2019-06-08T19:19:00.813Z,2.27
2019-06-08T19:21:30.980Z,4.70
2019-06-08T19:24:02.200Z,5.93
2019-06-08T19:26:33.212Z,3.47
2019-06-08T19:29:04.628Z,6.07
2019-06-08T19:31:38.597Z,5.80
2019-06-08T19:34:08.530Z,6.00
2019-06-08T19:36:41.329Z,10.43
2019-06-08T19:39:12.411Z,4.53
2019-06-08T19:41:44.116Z,8.40
2019-06-08T19:44:15.586Z,8.77
2019-06-08T19:46:51.145Z,6.53
2019-06-08T19:49:20.152Z,9.53
2019-06-08T19:51:53.897Z,8.97
2019-06-08T19:54:22.997Z,4.93
2019-06-08T19:56:54.652Z,10.53
2019-06-08T19:59:27.480Z,4.33
2019-06-08T20:01:59.921Z,4.33
2019-06-08T20:04:31.121Z,5.87
2019-06-08T20:07:02.423Z,13.20
2019-06-08T20:09:33.433Z,17.20
2019-06-08T20:12:04.785Z,10.73
2019-06-08T20:14:37.500Z,5.50
2019-06-08T20:17:08.890Z,5.23
2019-06-08T20:19:42.761Z,9.33
2019-06-08T20:22:14.305Z,8.20
2019-06-08T20:24:47.030Z,6.13
2019-06-08T20:27:18.275Z,4.90
2019-06-08T20:29:51.243Z,6.93
2019-06-08T20:32:21.545Z,6.73
2019-06-08T20:34:53.780Z,4.93
2019-06-08T20:37:27.842Z,5.67
2019-06-08T20:40:09.659Z,5.33
2019-06-08T20:42:32.004Z,5.93
2019-06-08T20:45:04.060Z,5.73
2019-06-08T20:47:36.715Z,3.80
2019-06-08T20:50:08.889Z,6.37
2019-06-08T20:52:39.744Z,5.90
2019-06-08T20:55:11.075Z,8.97
2019-06-08T20:57:43.109Z,6.37
2019-06-08T21:00:14.556Z,4.33
2019-06-08T21:02:46.463Z,6.43
2019-06-08T21:05:19.983Z,8.20
2019-06-08T21:07:55.681Z,5.73
2019-06-08T21:10:28.147Z,4.20
2019-06-08T21:12:59.026Z,4.43
2019-06-08T21:15:29.966Z,4.13
2019-06-08T21:18:04.121Z,7.57
2019-06-08T21:20:37.609Z,3.50
2019-06-08T21:23:09.309Z,5.13
2019-06-08T21:25:40.197Z,5.47
2019-06-08T21:28:11.567Z,6.50
2019-06-08T21:30:42.577Z,4.20
2019-06-08T21:33:13.737Z,4.60
2019-06-08T21:35:44.772Z,3.77
2019-06-08T21:38:23.239Z,3.90
2019-06-08T21:40:50.962Z,3.70
2019-06-08T21:43:20.698Z,5.43
2019-06-08T21:45:53.064Z,5.07
2019-06-08T21:48:24.675Z,5.33
2019-06-08T21:51:01.043Z,5.43
2019-06-08T21:53:31.893Z,4.67
2019-06-08T21:56:03.435Z,5.60
2019-06-08T21:58:34.552Z,5.87
2019-06-08T22:01:07.367Z,5.70
2019-06-08T22:03:40.248Z,7.07
2019-06-08T22:06:12.824Z,7.20
2019-06-08T22:08:43.911Z,6.37
2019-06-08T22:11:17.594Z,4.70
2019-06-08T22:13:47.992Z,4.27
2019-06-08T22:16:19.362Z,6.37
2019-06-08T22:18:51.550Z,5.30
2019-06-08T22:21:22.214Z,7.80
2019-06-08T22:23:55.867Z,5.03
2019-06-08T22:26:28.037Z,3.80
2019-06-08T22:29:00.996Z,6.67
2019-06-08T22:31:32.124Z,4.93
2019-06-08T22:34:04.047Z,6.23
2019-06-08T22:36:37.265Z,6.23
2019-06-08T22:39:08.368Z,5.97
2019-06-08T22:41:39.500Z,5.23
2019-06-08T22:44:10.820Z,4.17
2019-06-08T22:46:41.749Z,4.93
2019-06-08T22:49:15.216Z,5.53
2019-06-08T22:51:47.709Z,5.37
2019-06-08T22:54:18.914Z,5.73
2019-06-08T22:56:50.036Z,5.03
2019-06-08T22:59:20.070Z,4.90
2019-06-08T23:01:51.262Z,9.10
2019-06-08T23:04:22.335Z,5.73
2019-06-08T23:07:29.810Z,6.53
2019-06-08T23:10:08.941Z,5.47
2019-06-08T23:12:39.892Z,5.40
2019-06-08T23:15:11.323Z,4.80
2019-06-08T23:17:42.522Z,6.93
2019-06-08T23:20:14.050Z,5.30
2019-06-08T23:22:47.381Z,5.03
2019-06-08T23:25:18.428Z,6.63
2019-06-08T23:27:49.727Z,6.93
2019-06-08T23:30:20.714Z,3.57
2019-06-08T23:32:52.048Z,8.57
2019-06-08T23:35:23.013Z,6.33
2019-06-08T23:37:54.210Z,4.57
2019-06-08T23:40:27.208Z,5.40
2019-06-08T23:42:58.497Z,8.70
2019-06-08T23:45:30.013Z,5.83
2019-06-08T23:48:01.554Z,7.57
2019-06-08T23:50:34.402Z,6.03
2019-06-08T23:53:09.119Z,7.33
2019-06-08T23:55:38.601Z,6.67
2019-06-08T23:58:11.267Z,6.60
